Decoded Metar for KMJX ( in _UNIDENTIFIED) (IATA:N/A) | Meteo·Mobile Aviation Weather
aviador You're here:

KMJX Decoded Metar

in _UNIDENTIFIED
Report Time2019-02-16 06:56:00
UTC Time2019-02-16 07:44:01
Flight Rules vfr VFR
Wind320° at 11 Gusting to 19 kt
W.Decomp.*RWY 06: 0.2 kt HW 11 kt LCW
W.Rank320° ranks 5
Current wind is above 320° avg. (7.8)
Visibility9999 m
Phenomena:N/A
Clouds:Overcast 075 Hf
Expected CloudBase > 5,600 ft AGL from Temp-Dew spread
Ceiling7,500 ft
Temp08°C (ISA -7)
Dew Point-6°C (37% RH)
AAT1.3°C
QNH1007 hPa
Density Alt-479 ft
Elevation82 ft
Report Wrong Elevation
Raw Report
KMJX 160656Z AUTO 32011G19KT 10SM OVC075 08/M06 A2975 RMK AO2
SLP080 T00831061=

Extra information for KMJX:More info

Metar Taf Metar & Taf Last 4 Metars F.Rules Stats Wind Profile Meteogram Temp Stats Metar ALERT Operation Metar Decoded Social comments